Red Lodge, Montana
Current Conditions -  °F | °C
As of 11:15 PM on Friday 19 Dec 2014 (Local Time) from KPOY Reporting Station
Scattered Clouds Scattered Clouds  
Wind Chill: 17°   Ceiling: Unl
Heat Index: 27°   Visibility: 10mi
Dew Point: 18°   Wind: 9mph
Humidity: 69%   Direction: 130°SE
Pressure: 29.91"   Gusts: NA
Location:  45.19°N, 109.25°W
Report Text: KPOY 200615Z AUTO 13008KT 10SM SCT120 M03/M08 A2991 RMK AO2
Loading
Personal Weather Stations






























Interactive Weather Map New forecast layout! Learn more

10-Day Weather Forecast

Advertisements
Track Severe Weather on mobile